sensor_id;sensor_type;location;lat;lon;timestamp;pressure;altitude;pressure_sealevel;temperature;humidity
55271;BME280;41132;47.162;9.470;2022-08-21T00:00:38;96736.31;;;16.27;100.00
55271;BME280;41132;47.162;9.470;2022-08-21T00:03:05;96744.16;;;16.36;100.00
55271;BME280;41132;47.162;9.470;2022-08-21T00:05:39;96739.69;;;16.36;100.00
55271;BME280;41132;47.162;9.470;2022-08-21T00:08:05;96730.38;;;16.25;100.00
55271;BME280;41132;47.162;9.470;2022-08-21T00:10:31;96739.59;;;16.29;100.00
55271;BME280;41132;47.162;9.470;2022-08-21T00:12:57;96725.00;;;16.19;100.00
55271;BME280;41132;47.162;9.470;2022-08-21T00:15:26;96725.78;;;15.98;100.00
55271;BME280;41132;47.162;9.470;2022-08-21T00:17:53;96725.31;;;15.79;100.00
55271;BME280;41132;47.162;9.470;2022-08-21T00:20:19;96727.72;;;15.74;100.00
55271;BME280;41132;47.162;9.470;2022-08-21T00:22:44;96717.31;;;15.88;100.00
55271;BME280;41132;47.162;9.470;2022-08-21T00:25:11;96733.53;;;15.99;100.00
55271;BME280;41132;47.162;9.470;2022-08-21T00:27:37;96727.13;;;16.08;100.00
55271;BME280;41132;47.162;9.470;2022-08-21T00:30:05;96723.75;;;16.15;100.00
55271;BME280;41132;47.162;9.470;2022-08-21T00:32:31;96722.34;;;16.19;100.00
55271;BME280;41132;47.162;9.470;2022-08-21T00:34:56;96729.06;;;16.15;100.00
55271;BME280;41132;47.162;9.470;2022-08-21T00:37:22;96718.91;;;16.18;100.00
55271;BME280;41132;47.162;9.470;2022-08-21T00:39:47;96714.63;;;16.17;100.00
55271;BME280;41132;47.162;9.470;2022-08-21T00:42:13;96719.78;;;16.25;100.00
55271;BME280;41132;47.162;9.470;2022-08-21T00:44:44;96708.31;;;16.18;100.00
55271;BME280;41132;47.162;9.470;2022-08-21T00:47:10;96709.03;;;16.12;100.00
55271;BME280;41132;47.162;9.470;2022-08-21T00:49:37;96716.28;;;16.03;100.00
55271;BME280;41132;47.162;9.470;2022-08-21T00:52:05;96707.63;;;15.95;100.00
55271;BME280;41132;47.162;9.470;2022-08-21T00:54:32;96707.88;;;16.00;100.00
55271;BME280;41132;47.162;9.470;2022-08-21T00:57:21;96711.47;;;15.92;100.00
55271;BME280;41132;47.162;9.470;2022-08-21T00:59:49;96715.28;;;15.90;100.00
55271;BME280;41132;47.162;9.470;2022-08-21T01:02:18;96711.16;;;15.87;100.00
55271;BME280;41132;47.162;9.470;2022-08-21T01:04:45;96710.63;;;15.77;100.00
55271;BME280;41132;47.162;9.470;2022-08-21T01:07:11;96707.19;;;15.76;100.00
55271;BME280;41132;47.162;9.470;2022-08-21T01:09:39;96706.72;;;15.73;100.00
55271;BME280;41132;47.162;9.470;2022-08-21T01:12:06;96712.81;;;15.73;100.00
55271;BME280;41132;47.162;9.470;2022-08-21T01:14:32;96721.22;;;15.77;100.00
55271;BME280;41132;47.162;9.470;2022-08-21T01:16:59;96718.19;;;15.80;100.00
55271;BME280;41132;47.162;9.470;2022-08-21T01:19:26;96716.09;;;15.75;100.00
55271;BME280;41132;47.162;9.470;2022-08-21T01:21:52;96723.09;;;15.68;100.00
55271;BME280;41132;47.162;9.470;2022-08-21T01:24:19;96720.59;;;15.75;100.00
55271;BME280;41132;47.162;9.470;2022-08-21T01:26:45;96723.59;;;15.72;100.00
55271;BME280;41132;47.162;9.470;2022-08-21T01:31:56;96721.47;;;15.67;100.00
55271;BME280;41132;47.162;9.470;2022-08-21T01:34:21;96717.72;;;15.61;100.00
55271;BME280;41132;47.162;9.470;2022-08-21T01:36:47;96722.75;;;15.56;100.00
55271;BME280;41132;47.162;9.470;2022-08-21T01:39:15;96727.00;;;15.57;100.00
55271;BME280;41132;47.162;9.470;2022-08-21T01:41:40;96713.16;;;15.55;100.00
55271;BME280;41132;47.162;9.470;2022-08-21T01:44:07;96724.03;;;15.60;100.00
55271;BME280;41132;47.162;9.470;2022-08-21T01:46:32;96720.91;;;15.57;100.00
55271;BME280;41132;47.162;9.470;2022-08-21T01:48:58;96717.63;;;15.55;100.00
55271;BME280;41132;47.162;9.470;2022-08-21T01:51:24;96714.53;;;15.51;100.00
55271;BME280;41132;47.162;9.470;2022-08-21T01:53:50;96716.63;;;15.56;100.00
55271;BME280;41132;47.162;9.470;2022-08-21T01:56:17;96717.44;;;15.56;100.00
55271;BME280;41132;47.162;9.470;2022-08-21T01:58:44;96706.13;;;15.48;100.00
55271;BME280;41132;47.162;9.470;2022-08-21T02:01:12;96710.50;;;15.55;100.00
55271;BME280;41132;47.162;9.470;2022-08-21T02:03:39;96705.59;;;15.52;100.00
55271;BME280;41132;47.162;9.470;2022-08-21T02:06:07;96696.16;;;15.35;100.00
55271;BME280;41132;47.162;9.470;2022-08-21T02:08:34;96688.97;;;15.43;100.00
55271;BME280;41132;47.162;9.470;2022-08-21T02:11:04;96692.09;;;15.47;100.00
55271;BME280;41132;47.162;9.470;2022-08-21T02:13:29;96676.28;;;15.39;100.00
55271;BME280;41132;47.162;9.470;2022-08-21T02:15:55;96691.53;;;15.52;100.00
55271;BME280;41132;47.162;9.470;2022-08-21T02:18:22;96686.97;;;15.45;100.00
55271;BME280;41132;47.162;9.470;2022-08-21T02:20:50;96675.13;;;15.56;100.00
55271;BME280;41132;47.162;9.470;2022-08-21T02:23:16;96676.66;;;15.51;100.00
55271;BME280;41132;47.162;9.470;2022-08-21T02:25:42;96670.94;;;15.47;100.00
55271;BME280;41132;47.162;9.470;2022-08-21T02:28:15;96675.41;;;15.47;100.00
55271;BME280;41132;47.162;9.470;2022-08-21T02:30:43;96677.03;;;15.48;100.00
55271;BME280;41132;47.162;9.470;2022-08-21T02:33:10;96668.09;;;15.34;100.00
55271;BME280;41132;47.162;9.470;2022-08-21T02:35:38;96672.84;;;15.38;100.00
55271;BME280;41132;47.162;9.470;2022-08-21T02:38:07;96665.44;;;15.34;100.00
55271;BME280;41132;47.162;9.470;2022-08-21T02:40:38;96671.44;;;15.28;100.00
55271;BME280;41132;47.162;9.470;2022-08-21T02:43:21;96670.16;;;15.23;100.00
55271;BME280;41132;47.162;9.470;2022-08-21T02:45:49;96661.97;;;15.18;100.00
55271;BME280;41132;47.162;9.470;2022-08-21T02:48:19;96662.88;;;15.11;100.00
55271;BME280;41132;47.162;9.470;2022-08-21T02:50:47;96673.34;;;15.19;100.00
55271;BME280;41132;47.162;9.470;2022-08-21T02:53:15;96675.56;;;15.15;100.00
55271;BME280;41132;47.162;9.470;2022-08-21T02:55:44;96673.72;;;15.16;100.00
55271;BME280;41132;47.162;9.470;2022-08-21T02:58:10;96678.47;;;15.20;100.00
55271;BME280;41132;47.162;9.470;2022-08-21T03:00:41;96675.19;;;15.18;100.00
55271;BME280;41132;47.162;9.470;2022-08-21T03:03:08;96668.25;;;15.17;100.00
55271;BME280;41132;47.162;9.470;2022-08-21T03:05:35;96663.06;;;15.24;100.00
55271;BME280;41132;47.162;9.470;2022-08-21T03:08:04;96667.72;;;15.22;100.00
55271;BME280;41132;47.162;9.470;2022-08-21T03:10:30;96665.31;;;15.12;100.00
55271;BME280;41132;47.162;9.470;2022-08-21T03:12:56;96671.16;;;15.08;100.00
55271;BME280;41132;47.162;9.470;2022-08-21T03:15:24;96666.34;;;15.11;100.00
55271;BME280;41132;47.162;9.470;2022-08-21T03:17:51;96655.66;;;15.04;100.00
55271;BME280;41132;47.162;9.470;2022-08-21T03:20:22;96659.41;;;15.10;100.00
55271;BME280;41132;47.162;9.470;2022-08-21T03:22:51;96657.13;;;15.07;100.00
55271;BME280;41132;47.162;9.470;2022-08-21T03:25:20;96649.81;;;15.09;100.00
55271;BME280;41132;47.162;9.470;2022-08-21T03:27:48;96643.44;;;15.03;100.00
55271;BME280;41132;47.162;9.470;2022-08-21T03:30:18;96654.03;;;15.03;100.00
55271;BME280;41132;47.162;9.470;2022-08-21T03:32:47;96636.06;;;14.99;100.00
55271;BME280;41132;47.162;9.470;2022-08-21T03:35:17;96645.91;;;15.05;100.00
55271;BME280;41132;47.162;9.470;2022-08-21T03:37:47;96644.97;;;14.98;100.00
55271;BME280;41132;47.162;9.470;2022-08-21T03:40:24;96638.97;;;15.04;100.00
55271;BME280;41132;47.162;9.470;2022-08-21T03:42:58;96635.59;;;14.95;100.00
55271;BME280;41132;47.162;9.470;2022-08-21T03:45:29;96624.09;;;14.88;100.00
55271;BME280;41132;47.162;9.470;2022-08-21T03:48:01;96640.97;;;15.02;100.00
55271;BME280;41132;47.162;9.470;2022-08-21T03:50:55;96641.25;;;15.07;100.00
55271;BME280;41132;47.162;9.470;2022-08-21T03:53:28;96641.13;;;14.86;100.00
55271;BME280;41132;47.162;9.470;2022-08-21T03:55:55;96646.31;;;14.79;100.00
55271;BME280;41132;47.162;9.470;2022-08-21T03:58:26;96648.59;;;14.82;100.00
55271;BME280;41132;47.162;9.470;2022-08-21T04:00:55;96642.66;;;14.80;100.00
55271;BME280;41132;47.162;9.470;2022-08-21T04:03:23;96637.16;;;14.67;100.00
55271;BME280;41132;47.162;9.470;2022-08-21T04:05:50;96658.06;;;14.76;100.00
55271;BME280;41132;47.162;9.470;2022-08-21T04:08:20;96656.41;;;14.75;100.00
55271;BME280;41132;47.162;9.470;2022-08-21T04:10:49;96654.56;;;14.76;100.00
55271;BME280;41132;47.162;9.470;2022-08-21T04:13:16;96652.84;;;14.68;100.00
55271;BME280;41132;47.162;9.470;2022-08-21T04:15:54;96649.81;;;14.71;100.00
55271;BME280;41132;47.162;9.470;2022-08-21T04:18:28;96645.44;;;14.64;100.00
55271;BME280;41132;47.162;9.470;2022-08-21T04:21:38;96657.06;;;14.77;100.00
55271;BME280;41132;47.162;9.470;2022-08-21T04:24:29;96664.00;;;14.78;100.00
55271;BME280;41132;47.162;9.470;2022-08-21T04:26:57;96666.31;;;14.73;100.00
55271;BME280;41132;47.162;9.470;2022-08-21T04:29:29;96670.91;;;14.79;100.00
55271;BME280;41132;47.162;9.470;2022-08-21T04:31:54;96673.06;;;14.76;100.00
55271;BME280;41132;47.162;9.470;2022-08-21T04:34:20;96664.00;;;14.78;100.00
55271;BME280;41132;47.162;9.470;2022-08-21T04:36:48;96668.63;;;14.76;100.00
55271;BME280;41132;47.162;9.470;2022-08-21T04:39:37;96665.50;;;14.73;100.00
55271;BME280;41132;47.162;9.470;2022-08-21T04:42:28;96669.44;;;14.77;100.00
55271;BME280;41132;47.162;9.470;2022-08-21T04:45:05;96674.19;;;14.81;100.00
55271;BME280;41132;47.162;9.470;2022-08-21T04:47:33;96666.28;;;14.81;100.00
55271;BME280;41132;47.162;9.470;2022-08-21T04:50:00;96674.47;;;14.87;100.00
55271;BME280;41132;47.162;9.470;2022-08-21T04:52:29;96664.28;;;14.83;100.00
55271;BME280;41132;47.162;9.470;2022-08-21T04:55:04;96678.25;;;14.92;100.00
55271;BME280;41132;47.162;9.470;2022-08-21T04:58:06;96677.19;;;14.78;100.00
55271;BME280;41132;47.162;9.470;2022-08-21T05:00:46;96685.28;;;14.77;100.00
55271;BME280;41132;47.162;9.470;2022-08-21T05:03:18;96682.59;;;14.62;100.00
55271;BME280;41132;47.162;9.470;2022-08-21T05:06:00;96678.47;;;14.59;100.00
55271;BME280;41132;47.162;9.470;2022-08-21T05:09:00;96667.75;;;14.61;100.00
55271;BME280;41132;47.162;9.470;2022-08-21T05:11:33;96687.00;;;14.70;100.00
55271;BME280;41132;47.162;9.470;2022-08-21T05:14:18;96678.59;;;14.66;100.00
55271;BME280;41132;47.162;9.470;2022-08-21T05:16:50;96682.00;;;14.75;100.00
55271;BME280;41132;47.162;9.470;2022-08-21T05:19:42;96678.66;;;14.81;100.00
55271;BME280;41132;47.162;9.470;2022-08-21T05:22:21;96683.47;;;14.77;100.00
55271;BME280;41132;47.162;9.470;2022-08-21T05:24:52;96670.44;;;14.76;100.00
55271;BME280;41132;47.162;9.470;2022-08-21T05:27:23;96679.53;;;14.73;100.00
55271;BME280;41132;47.162;9.470;2022-08-21T05:29:51;96683.94;;;14.81;100.00
55271;BME280;41132;47.162;9.470;2022-08-21T05:32:27;96679.91;;;14.70;100.00
55271;BME280;41132;47.162;9.470;2022-08-21T05:35:03;96681.78;;;14.61;100.00
55271;BME280;41132;47.162;9.470;2022-08-21T05:37:59;96684.81;;;14.73;100.00
55271;BME280;41132;47.162;9.470;2022-08-21T05:40:31;96692.41;;;14.76;100.00
55271;BME280;41132;47.162;9.470;2022-08-21T05:43:06;96694.03;;;14.77;100.00
55271;BME280;41132;47.162;9.470;2022-08-21T05:45:57;96695.38;;;14.73;100.00
55271;BME280;41132;47.162;9.470;2022-08-21T05:48:49;96685.53;;;14.67;100.00
55271;BME280;41132;47.162;9.470;2022-08-21T05:51:43;96699.50;;;14.76;100.00
55271;BME280;41132;47.162;9.470;2022-08-21T05:54:26;96701.78;;;14.79;100.00
55271;BME280;41132;47.162;9.470;2022-08-21T05:57:02;96695.63;;;14.87;100.00
55271;BME280;41132;47.162;9.470;2022-08-21T05:59:39;96701.69;;;14.72;100.00
55271;BME280;41132;47.162;9.470;2022-08-21T06:02:22;96706.66;;;14.90;100.00
55271;BME280;41132;47.162;9.470;2022-08-21T06:05:16;96701.66;;;14.95;100.00
55271;BME280;41132;47.162;9.470;2022-08-21T06:08:21;96690.41;;;14.78;100.00
55271;BME280;41132;47.162;9.470;2022-08-21T06:11:13;96698.84;;;14.97;100.00
55271;BME280;41132;47.162;9.470;2022-08-21T06:14:13;96695.84;;;15.00;100.00
55271;BME280;41132;47.162;9.470;2022-08-21T06:16:50;96689.47;;;15.09;100.00
55271;BME280;41132;47.162;9.470;2022-08-21T06:19:33;96689.84;;;15.21;100.00
55271;BME280;41132;47.162;9.470;2022-08-21T06:22:04;96679.22;;;15.29;100.00
55271;BME280;41132;47.162;9.470;2022-08-21T06:24:40;96674.38;;;15.18;100.00
55271;BME280;41132;47.162;9.470;2022-08-21T06:27:51;96687.25;;;15.36;100.00
55271;BME280;41132;47.162;9.470;2022-08-21T06:30:23;96684.50;;;15.44;100.00
55271;BME280;41132;47.162;9.470;2022-08-21T06:33:03;96682.16;;;15.49;100.00
55271;BME280;41132;47.162;9.470;2022-08-21T06:35:41;96682.59;;;15.68;100.00
55271;BME280;41132;47.162;9.470;2022-08-21T06:38:15;96671.13;;;15.90;100.00
55271;BME280;41132;47.162;9.470;2022-08-21T06:41:15;96676.03;;;16.29;100.00
55271;BME280;41132;47.162;9.470;2022-08-21T06:44:07;96672.53;;;16.87;100.00
55271;BME280;41132;47.162;9.470;2022-08-21T06:47:14;96657.84;;;17.75;100.00
55271;BME280;41132;47.162;9.470;2022-08-21T06:49:46;96668.94;;;17.51;100.00
55271;BME280;41132;47.162;9.470;2022-08-21T06:52:14;96663.09;;;18.04;100.00
55271;BME280;41132;47.162;9.470;2022-08-21T06:54:46;96656.44;;;18.28;100.00
55271;BME280;41132;47.162;9.470;2022-08-21T06:57:21;96645.72;;;18.83;100.00
55271;BME280;41132;47.162;9.470;2022-08-21T06:59:49;96660.66;;;19.17;100.00
55271;BME280;41132;47.162;9.470;2022-08-21T07:02:14;96658.69;;;19.84;100.00
55271;BME280;41132;47.162;9.470;2022-08-21T07:04:40;96650.34;;;19.60;100.00
55271;BME280;41132;47.162;9.470;2022-08-21T07:07:05;96654.91;;;19.07;100.00
55271;BME280;41132;47.162;9.470;2022-08-21T07:09:30;96645.97;;;19.93;100.00
55271;BME280;41132;47.162;9.470;2022-08-21T07:11:58;96656.53;;;20.51;100.00
55271;BME280;41132;47.162;9.470;2022-08-21T07:14:23;96638.69;;;20.58;100.00
55271;BME280;41132;47.162;9.470;2022-08-21T07:16:49;96648.09;;;20.61;100.00
55271;BME280;41132;47.162;9.470;2022-08-21T07:19:15;96638.09;;;20.81;100.00
55271;BME280;41132;47.162;9.470;2022-08-21T07:21:41;96644.09;;;21.02;100.00
55271;BME280;41132;47.162;9.470;2022-08-21T07:24:06;96643.00;;;21.35;100.00
55271;BME280;41132;47.162;9.470;2022-08-21T07:26:32;96638.59;;;20.97;100.00
55271;BME280;41132;47.162;9.470;2022-08-21T07:28:57;96636.56;;;21.17;100.00
55271;BME280;41132;47.162;9.470;2022-08-21T07:31:24;96624.03;;;21.43;100.00
55271;BME280;41132;47.162;9.470;2022-08-21T07:33:50;96645.38;;;21.43;100.00
55271;BME280;41132;47.162;9.470;2022-08-21T07:36:16;96627.69;;;21.85;100.00
55271;BME280;41132;47.162;9.470;2022-08-21T07:38:42;96628.38;;;22.29;100.00
55271;BME280;41132;47.162;9.470;2022-08-21T07:41:24;96632.81;;;22.17;100.00
55271;BME280;41132;47.162;9.470;2022-08-21T07:43:49;96633.69;;;21.19;100.00
55271;BME280;41132;47.162;9.470;2022-08-21T07:46:15;96628.50;;;21.49;100.00
55271;BME280;41132;47.162;9.470;2022-08-21T07:48:40;96634.22;;;21.02;100.00
55271;BME280;41132;47.162;9.470;2022-08-21T07:51:09;96632.03;;;21.18;100.00
55271;BME280;41132;47.162;9.470;2022-08-21T07:53:36;96619.13;;;21.95;94.28
55271;BME280;41132;47.162;9.470;2022-08-21T07:56:03;96625.03;;;22.76;95.54
55271;BME280;41132;47.162;9.470;2022-08-21T07:58:30;96617.03;;;23.00;100.00
55271;BME280;41132;47.162;9.470;2022-08-21T08:00:55;96608.94;;;22.64;99.55
55271;BME280;41132;47.162;9.470;2022-08-21T08:03:21;96615.28;;;23.52;98.02
55271;BME280;41132;47.162;9.470;2022-08-21T08:05:46;96615.13;;;22.77;97.82
55271;BME280;41132;47.162;9.470;2022-08-21T08:08:11;96610.47;;;22.11;100.00
55271;BME280;41132;47.162;9.470;2022-08-21T08:10:38;96607.78;;;22.30;99.82
55271;BME280;41132;47.162;9.470;2022-08-21T08:13:04;96600.34;;;22.74;100.00
55271;BME280;41132;47.162;9.470;2022-08-21T08:15:29;96598.84;;;22.24;100.00
55271;BME280;41132;47.162;9.470;2022-08-21T08:17:56;96602.47;;;21.44;100.00
55271;BME280;41132;47.162;9.470;2022-08-21T08:20:23;96603.41;;;21.68;100.00
55271;BME280;41132;47.162;9.470;2022-08-21T08:22:50;96600.56;;;21.26;100.00
55271;BME280;41132;47.162;9.470;2022-08-21T08:25:16;96578.06;;;22.08;98.44
55271;BME280;41132;47.162;9.470;2022-08-21T08:27:42;96590.44;;;21.54;100.00
55271;BME280;41132;47.162;9.470;2022-08-21T08:30:10;96588.28;;;21.00;100.00
55271;BME280;41132;47.162;9.470;2022-08-21T08:32:36;96588.47;;;21.24;100.00
55271;BME280;41132;47.162;9.470;2022-08-21T08:35:02;96582.31;;;21.23;100.00
55271;BME280;41132;47.162;9.470;2022-08-21T08:37:28;96588.28;;;21.00;100.00
55271;BME280;41132;47.162;9.470;2022-08-21T08:39:53;96577.19;;;21.03;100.00
55271;BME280;41132;47.162;9.470;2022-08-21T08:42:25;96586.91;;;20.91;100.00
55271;BME280;41132;47.162;9.470;2022-08-21T08:44:58;96592.16;;;21.23;100.00
55271;BME280;41132;47.162;9.470;2022-08-21T08:47:25;96581.34;;;21.18;100.00
55271;BME280;41132;47.162;9.470;2022-08-21T08:50:03;96581.75;;;21.77;100.00
55271;BME280;41132;47.162;9.470;2022-08-21T08:52:30;96593.81;;;21.24;100.00
55271;BME280;41132;47.162;9.470;2022-08-21T08:55:17;96582.03;;;20.63;100.00
55271;BME280;41132;47.162;9.470;2022-08-21T08:57:46;96592.13;;;20.54;100.00
55271;BME280;41132;47.162;9.470;2022-08-21T09:00:16;96592.91;;;20.86;100.00
55271;BME280;41132;47.162;9.470;2022-08-21T09:02:44;96585.16;;;20.60;100.00
55271;BME280;41132;47.162;9.470;2022-08-21T09:14:01;96570.63;;;20.81;100.00
55271;BME280;41132;47.162;9.470;2022-08-21T09:46:31;96546.97;;;21.65;100.00
55271;BME280;41132;47.162;9.470;2022-08-21T09:49:01;96551.00;;;21.86;100.00
55271;BME280;41132;47.162;9.470;2022-08-21T09:51:35;96543.09;;;21.79;100.00
55271;BME280;41132;47.162;9.470;2022-08-21T09:56:36;96533.47;;;21.41;100.00
55271;BME280;41132;47.162;9.470;2022-08-21T10:01:50;96529.56;;;21.44;100.00
55271;BME280;41132;47.162;9.470;2022-08-21T10:04:21;96527.38;;;21.71;100.00
55271;BME280;41132;47.162;9.470;2022-08-21T10:06:47;96531.00;;;21.77;99.96
55271;BME280;41132;47.162;9.470;2022-08-21T10:09:19;96533.97;;;21.68;95.09
55271;BME280;41132;47.162;9.470;2022-08-21T10:14:37;96514.06;;;22.13;98.31
55271;BME280;41132;47.162;9.470;2022-08-21T10:17:15;96519.81;;;22.28;99.40
55271;BME280;41132;47.162;9.470;2022-08-21T10:22:38;96505.09;;;22.61;98.31
55271;BME280;41132;47.162;9.470;2022-08-21T10:25:27;96513.31;;;22.36;96.95
55271;BME280;41132;47.162;9.470;2022-08-21T10:30:48;96504.53;;;22.83;100.00
55271;BME280;41132;47.162;9.470;2022-08-21T10:36:24;96498.22;;;22.54;100.00
55271;BME280;41132;47.162;9.470;2022-08-21T10:47:35;96496.94;;;22.80;100.00
55271;BME280;41132;47.162;9.470;2022-08-21T10:50:17;96493.78;;;22.36;100.00
55271;BME280;41132;47.162;9.470;2022-08-21T10:55:26;96484.97;;;22.35;100.00
55271;BME280;41132;47.162;9.470;2022-08-21T10:58:04;96494.84;;;22.46;100.00
55271;BME280;41132;47.162;9.470;2022-08-21T11:00:52;96479.50;;;22.42;100.00
55271;BME280;41132;47.162;9.470;2022-08-21T11:03:39;96480.31;;;22.42;100.00
55271;BME280;41132;47.162;9.470;2022-08-21T11:06:14;96490.41;;;22.40;100.00
55271;BME280;41132;47.162;9.470;2022-08-21T11:08:51;96483.56;;;22.33;100.00
55271;BME280;41132;47.162;9.470;2022-08-21T11:11:22;96480.53;;;22.29;100.00
55271;BME280;41132;47.162;9.470;2022-08-21T11:14:02;96478.91;;;21.98;93.87
55271;BME280;41132;47.162;9.470;2022-08-21T11:16:34;96476.81;;;21.88;88.65
55271;BME280;41132;47.162;9.470;2022-08-21T11:19:15;96473.44;;;21.93;92.23
55271;BME280;41132;47.162;9.470;2022-08-21T11:21:46;96464.25;;;21.88;93.62
55271;BME280;41132;47.162;9.470;2022-08-21T11:26:49;96453.56;;;21.88;93.24
55271;BME280;41132;47.162;9.470;2022-08-21T11:29:37;96458.38;;;21.68;86.72
55271;BME280;41132;47.162;9.470;2022-08-21T11:32:39;96453.66;;;21.82;91.28
55271;BME280;41132;47.162;9.470;2022-08-21T11:43:10;96432.09;;;22.07;98.98
55271;BME280;41132;47.162;9.470;2022-08-21T11:45:54;96428.50;;;22.01;98.76
55271;BME280;41132;47.162;9.470;2022-08-21T11:50:49;96428.50;;;21.89;89.94
55271;BME280;41132;47.162;9.470;2022-08-21T11:55:53;96416.88;;;21.96;91.83
55271;BME280;41132;47.162;9.470;2022-08-21T11:58:43;96415.94;;;21.78;90.11
55271;BME280;41132;47.162;9.470;2022-08-21T12:01:16;96409.19;;;21.76;94.59
55271;BME280;41132;47.162;9.470;2022-08-21T12:04:00;96414.06;;;21.79;98.98
55271;BME280;41132;47.162;9.470;2022-08-21T12:06:38;96407.06;;;21.78;93.43
55271;BME280;41132;47.162;9.470;2022-08-21T12:09:31;96390.72;;;21.86;96.49
55271;BME280;41132;47.162;9.470;2022-08-21T12:12:10;96409.81;;;22.01;86.62
55271;BME280;41132;47.162;9.470;2022-08-21T12:14:45;96406.88;;;21.91;96.62
55271;BME280;41132;47.162;9.470;2022-08-21T12:17:22;96395.84;;;21.87;88.68
55271;BME280;41132;47.162;9.470;2022-08-21T12:20:00;96402.22;;;21.86;94.46
55271;BME280;41132;47.162;9.470;2022-08-21T12:22:54;96397.47;;;22.00;88.72
55271;BME280;41132;47.162;9.470;2022-08-21T12:25:21;96392.59;;;21.97;86.04
55271;BME280;41132;47.162;9.470;2022-08-21T12:27:51;96394.34;;;21.92;88.91
55271;BME280;41132;47.162;9.470;2022-08-21T12:30:32;96386.19;;;21.86;88.02
55271;BME280;41132;47.162;9.470;2022-08-21T12:33:04;96392.13;;;22.00;85.05
55271;BME280;41132;47.162;9.470;2022-08-21T12:35:38;96387.03;;;21.99;87.25
55271;BME280;41132;47.162;9.470;2022-08-21T12:38:21;96375.06;;;22.01;84.71
55271;BME280;41132;47.162;9.470;2022-08-21T12:40:54;96374.97;;;21.96;85.62
55271;BME280;41132;47.162;9.470;2022-08-21T12:43:25;96369.84;;;22.18;83.39
55271;BME280;41132;47.162;9.470;2022-08-21T12:45:53;96367.75;;;22.08;81.78
55271;BME280;41132;47.162;9.470;2022-08-21T12:49:07;96373.00;;;22.03;86.12
55271;BME280;41132;47.162;9.470;2022-08-21T12:51:16;96373.31;;;22.07;79.84
55271;BME280;41132;47.162;9.470;2022-08-21T12:53:53;96371.72;;;22.06;78.95
55271;BME280;41132;47.162;9.470;2022-08-21T12:56:22;96376.47;;;21.92;76.49
55271;BME280;41132;47.162;9.470;2022-08-21T12:58:50;96361.81;;;21.95;76.26
55271;BME280;41132;47.162;9.470;2022-08-21T13:03:45;96359.03;;;22.01;74.79
55271;BME280;41132;47.162;9.470;2022-08-21T13:06:17;96359.50;;;21.98;77.09
55271;BME280;41132;47.162;9.470;2022-08-21T13:08:44;96353.22;;;21.93;82.88
55271;BME280;41132;47.162;9.470;2022-08-21T13:11:15;96349.97;;;21.90;77.93
55271;BME280;41132;47.162;9.470;2022-08-21T13:13:42;96353.91;;;22.11;73.89
55271;BME280;41132;47.162;9.470;2022-08-21T13:16:08;96353.69;;;22.13;72.34
55271;BME280;41132;47.162;9.470;2022-08-21T13:18:36;96348.00;;;22.09;78.15
55271;BME280;41132;47.162;9.470;2022-08-21T13:21:09;96346.03;;;22.17;73.90
55271;BME280;41132;47.162;9.470;2022-08-21T13:23:35;96348.63;;;22.23;77.21
55271;BME280;41132;47.162;9.470;2022-08-21T13:26:01;96344.91;;;22.24;77.55
55271;BME280;41132;47.162;9.470;2022-08-21T13:28:35;96321.63;;;22.13;75.33
55271;BME280;41132;47.162;9.470;2022-08-21T13:31:07;96343.28;;;22.23;75.94
55271;BME280;41132;47.162;9.470;2022-08-21T13:33:33;96346.50;;;22.25;72.07
55271;BME280;41132;47.162;9.470;2022-08-21T13:38:28;96345.94;;;22.35;73.98
55271;BME280;41132;47.162;9.470;2022-08-21T13:40:57;96348.25;;;22.31;74.17
55271;BME280;41132;47.162;9.470;2022-08-21T13:43:32;96336.66;;;22.26;72.35
55271;BME280;41132;47.162;9.470;2022-08-21T13:45:57;96347.34;;;22.26;75.04
55271;BME280;41132;47.162;9.470;2022-08-21T13:48:26;96330.13;;;22.34;71.86
55271;BME280;41132;47.162;9.470;2022-08-21T13:50:53;96332.44;;;22.30;76.54
55271;BME280;41132;47.162;9.470;2022-08-21T13:53:30;96339.91;;;22.40;73.38
55271;BME280;41132;47.162;9.470;2022-08-21T13:55:57;96324.09;;;22.26;75.36
55271;BME280;41132;47.162;9.470;2022-08-21T13:58:29;96337.44;;;22.38;75.88
55271;BME280;41132;47.162;9.470;2022-08-21T14:00:56;96329.09;;;22.35;73.71
55271;BME280;41132;47.162;9.470;2022-08-21T14:03:43;96343.03;;;22.48;74.84
55271;BME280;41132;47.162;9.470;2022-08-21T14:06:21;96336.50;;;22.56;76.59
55271;BME280;41132;47.162;9.470;2022-08-21T14:08:50;96337.44;;;22.50;73.51
55271;BME280;41132;47.162;9.470;2022-08-21T14:11:16;96336.63;;;22.38;75.03
55271;BME280;41132;47.162;9.470;2022-08-21T14:14:05;96342.09;;;22.43;74.58
55271;BME280;41132;47.162;9.470;2022-08-21T14:16:53;96334.44;;;22.46;72.30
55271;BME280;41132;47.162;9.470;2022-08-21T14:19:25;96335.94;;;22.42;76.10
55271;BME280;41132;47.162;9.470;2022-08-21T14:21:51;96339.06;;;22.51;76.96
55271;BME280;41132;47.162;9.470;2022-08-21T14:26:54;96335.91;;;22.54;71.70
55271;BME280;41132;47.162;9.470;2022-08-21T14:29:22;96337.06;;;22.58;74.29
55271;BME280;41132;47.162;9.470;2022-08-21T14:31:55;96339.66;;;22.53;74.61
55271;BME280;41132;47.162;9.470;2022-08-21T14:34:26;96332.63;;;22.64;68.72
55271;BME280;41132;47.162;9.470;2022-08-21T14:36:53;96334.28;;;22.65;72.74
55271;BME280;41132;47.162;9.470;2022-08-21T14:39:20;96338.94;;;22.58;73.61
55271;BME280;41132;47.162;9.470;2022-08-21T14:41:46;96328.94;;;22.53;74.89
55271;BME280;41132;47.162;9.470;2022-08-21T14:44:14;96340.44;;;22.65;71.11
55271;BME280;41132;47.162;9.470;2022-08-21T14:46:39;96333.69;;;22.63;71.94
55271;BME280;41132;47.162;9.470;2022-08-21T14:49:05;96347.50;;;22.71;69.08
55271;BME280;41132;47.162;9.470;2022-08-21T14:51:30;96335.88;;;22.66;68.43